sensor_id;sensor_type;location;lat;lon;timestamp;pressure;altitude;pressure_sealevel;temperature;humidity
55474;BME280;65220;52.214;0.116;2022-11-25T00:01:05;100181.04;;;15.52;32.77
55474;BME280;65220;52.214;0.116;2022-11-25T00:03:29;100184.13;;;16.12;32.77
55474;BME280;65220;52.214;0.116;2022-11-25T00:05:54;100177.74;;;15.93;32.72
55474;BME280;65220;52.214;0.116;2022-11-25T00:08:19;100176.73;;;16.15;32.68
55474;BME280;65220;52.214;0.116;2022-11-25T00:10:44;100171.38;;;15.90;32.86
55474;BME280;65220;52.214;0.116;2022-11-25T00:13:10;100164.67;;;15.72;32.82
55474;BME280;65220;52.214;0.116;2022-11-25T00:15:35;100163.15;;;15.94;32.81
55474;BME280;65220;52.214;0.116;2022-11-25T00:18:01;100165.11;;;16.14;32.59
55474;BME280;65220;52.214;0.116;2022-11-25T00:20:25;100166.48;;;16.32;32.59
55474;BME280;65220;52.214;0.116;2022-11-25T00:22:50;100163.22;;;16.00;32.65
55474;BME280;65220;52.214;0.116;2022-11-25T00:25:16;100164.26;;;16.11;32.71
55474;BME280;65220;52.214;0.116;2022-11-25T00:27:41;100163.33;;;16.10;32.52
55474;BME280;65220;52.214;0.116;2022-11-25T00:30:07;100165.50;;;15.92;32.59
55474;BME280;65220;52.214;0.116;2022-11-25T00:32:32;100173.30;;;16.05;32.61
55474;BME280;65220;52.214;0.116;2022-11-25T00:34:57;100174.62;;;16.12;32.48
55474;BME280;65220;52.214;0.116;2022-11-25T00:37:22;100175.15;;;16.18;32.44
55474;BME280;65220;52.214;0.116;2022-11-25T00:39:47;100179.44;;;16.33;32.43
55474;BME280;65220;52.214;0.116;2022-11-25T00:42:13;100174.67;;;16.22;32.57
55474;BME280;65220;52.214;0.116;2022-11-25T00:44:38;100182.59;;;15.92;32.63
55474;BME280;65220;52.214;0.116;2022-11-25T00:47:05;100178.88;;;16.28;32.63
55474;BME280;65220;52.214;0.116;2022-11-25T00:49:28;100182.38;;;15.85;32.72
55474;BME280;65220;52.214;0.116;2022-11-25T00:51:54;100186.85;;;15.67;32.71
55474;BME280;65220;52.214;0.116;2022-11-25T00:54:19;100187.11;;;15.94;32.66
55474;BME280;65220;52.214;0.116;2022-11-25T00:56:44;100200.37;;;15.84;32.64
55474;BME280;65220;52.214;0.116;2022-11-25T00:59:09;100199.21;;;16.10;32.60
55474;BME280;65220;52.214;0.116;2022-11-25T01:01:35;100195.40;;;15.88;32.71
55474;BME280;65220;52.214;0.116;2022-11-25T01:04:01;100201.80;;;16.08;32.60
55474;BME280;65220;52.214;0.116;2022-11-25T01:06:25;100210.51;;;15.91;32.70
55474;BME280;65220;52.214;0.116;2022-11-25T01:08:51;100206.77;;;15.91;32.64
55474;BME280;65220;52.214;0.116;2022-11-25T01:11:18;100207.93;;;16.13;32.63
55474;BME280;65220;52.214;0.116;2022-11-25T01:13:41;100215.00;;;15.78;32.64
55474;BME280;65220;52.214;0.116;2022-11-25T01:16:08;100216.43;;;15.89;32.59
55474;BME280;65220;52.214;0.116;2022-11-25T01:18:32;100214.20;;;16.19;32.58
55474;BME280;65220;52.214;0.116;2022-11-25T01:21:04;100214.93;;;15.81;32.66
55474;BME280;65220;52.214;0.116;2022-11-25T01:23:22;100220.23;;;16.15;32.56
55474;BME280;65220;52.214;0.116;2022-11-25T01:25:47;100222.02;;;15.88;32.58
55474;BME280;65220;52.214;0.116;2022-11-25T01:28:12;100225.88;;;15.86;32.52
55474;BME280;65220;52.214;0.116;2022-11-25T01:30:38;100233.73;;;15.48;32.71
55474;BME280;65220;52.214;0.116;2022-11-25T01:33:03;100233.55;;;16.06;32.60
55474;BME280;65220;52.214;0.116;2022-11-25T01:35:28;100236.25;;;15.96;32.50
55474;BME280;65220;52.214;0.116;2022-11-25T01:37:53;100240.83;;;15.87;32.70
55474;BME280;65220;52.214;0.116;2022-11-25T01:40:18;100246.84;;;15.87;32.58
55474;BME280;65220;52.214;0.116;2022-11-25T01:42:45;100243.72;;;15.92;32.63
55474;BME280;65220;52.214;0.116;2022-11-25T01:45:33;100249.35;;;15.84;32.56
55474;BME280;65220;52.214;0.116;2022-11-25T01:47:34;100258.05;;;15.70;32.64
55474;BME280;65220;52.214;0.116;2022-11-25T01:50:02;100261.98;;;15.41;32.68
55474;BME280;65220;52.214;0.116;2022-11-25T01:52:28;100266.34;;;15.83;32.61
55474;BME280;65220;52.214;0.116;2022-11-25T01:54:54;100271.86;;;15.85;32.65
55474;BME280;65220;52.214;0.116;2022-11-25T01:57:20;100275.12;;;15.87;32.55
55474;BME280;65220;52.214;0.116;2022-11-25T01:59:43;100278.50;;;16.07;32.51
55474;BME280;65220;52.214;0.116;2022-11-25T02:02:06;100279.43;;;15.88;32.57
55474;BME280;65220;52.214;0.116;2022-11-25T02:04:32;100281.84;;;15.90;32.67
55474;BME280;65220;52.214;0.116;2022-11-25T02:06:59;100284.94;;;15.81;32.62
55474;BME280;65220;52.214;0.116;2022-11-25T02:09:22;100286.78;;;15.99;32.57
55474;BME280;65220;52.214;0.116;2022-11-25T02:11:47;100287.44;;;15.47;32.62
55474;BME280;65220;52.214;0.116;2022-11-25T02:14:13;100293.01;;;15.77;32.53
55474;BME280;65220;52.214;0.116;2022-11-25T02:16:37;100292.55;;;15.68;32.55
55474;BME280;65220;52.214;0.116;2022-11-25T02:19:02;100294.52;;;15.56;32.57
55474;BME280;65220;52.214;0.116;2022-11-25T02:21:33;100286.14;;;15.57;32.53
55474;BME280;65220;52.214;0.116;2022-11-25T02:23:58;100289.33;;;15.60;32.63
55474;BME280;65220;52.214;0.116;2022-11-25T02:26:18;100296.81;;;15.73;32.48
55474;BME280;65220;52.214;0.116;2022-11-25T02:28:43;100307.40;;;15.67;32.57
55474;BME280;65220;52.214;0.116;2022-11-25T02:31:08;100318.78;;;15.90;32.52
55474;BME280;65220;52.214;0.116;2022-11-25T02:33:33;100317.52;;;16.08;32.53
55474;BME280;65220;52.214;0.116;2022-11-25T02:36:00;100323.05;;;15.78;32.49
55474;BME280;65220;52.214;0.116;2022-11-25T02:38:29;100329.69;;;16.23;32.53
55474;BME280;65220;52.214;0.116;2022-11-25T02:40:53;100333.39;;;15.99;32.55
55474;BME280;65220;52.214;0.116;2022-11-25T02:43:15;100337.87;;;16.22;32.53
55474;BME280;65220;52.214;0.116;2022-11-25T02:45:46;100340.15;;;15.42;32.55
55474;BME280;65220;52.214;0.116;2022-11-25T02:48:06;100346.13;;;15.64;32.59
55474;BME280;65220;52.214;0.116;2022-11-25T02:50:30;100350.76;;;15.70;32.44
55474;BME280;65220;52.214;0.116;2022-11-25T02:52:55;100356.60;;;15.86;32.55
55474;BME280;65220;52.214;0.116;2022-11-25T02:55:21;100361.40;;;15.57;32.59
55474;BME280;65220;52.214;0.116;2022-11-25T02:57:46;100364.21;;;15.89;32.56
55474;BME280;65220;52.214;0.116;2022-11-25T03:00:12;100370.03;;;15.80;32.59
55474;BME280;65220;52.214;0.116;2022-11-25T03:02:36;100370.02;;;15.74;32.53
55474;BME280;65220;52.214;0.116;2022-11-25T03:05:02;100370.70;;;15.60;32.56
55474;BME280;65220;52.214;0.116;2022-11-25T03:07:26;100381.45;;;15.65;32.50
55474;BME280;65220;52.214;0.116;2022-11-25T03:09:52;100390.66;;;15.93;32.55
55474;BME280;65220;52.214;0.116;2022-11-25T03:12:17;100394.46;;;15.36;32.80
55474;BME280;65220;52.214;0.116;2022-11-25T03:14:42;100395.67;;;15.19;32.60
55474;BME280;65220;52.214;0.116;2022-11-25T03:17:07;100403.72;;;15.42;32.71
55474;BME280;65220;52.214;0.116;2022-11-25T03:19:32;100401.67;;;15.56;32.69
55474;BME280;65220;52.214;0.116;2022-11-25T03:21:58;100408.44;;;15.40;32.79
55474;BME280;65220;52.214;0.116;2022-11-25T03:24:23;100415.87;;;15.21;32.70
55474;BME280;65220;52.214;0.116;2022-11-25T03:26:48;100416.20;;;15.57;32.67
55474;BME280;65220;52.214;0.116;2022-11-25T03:29:13;100419.36;;;15.49;32.76
55474;BME280;65220;52.214;0.116;2022-11-25T03:31:38;100424.17;;;15.35;32.80
55474;BME280;65220;52.214;0.116;2022-11-25T03:34:03;100423.26;;;15.67;32.61
55474;BME280;65220;52.214;0.116;2022-11-25T03:36:29;100426.75;;;15.52;32.72
55474;BME280;65220;52.214;0.116;2022-11-25T03:38:54;100437.94;;;15.55;32.69
55474;BME280;65220;52.214;0.116;2022-11-25T03:41:19;100442.39;;;15.46;32.81
55474;BME280;65220;52.214;0.116;2022-11-25T03:43:44;100447.41;;;15.32;32.75
55474;BME280;65220;52.214;0.116;2022-11-25T03:46:09;100459.89;;;15.42;32.68
55474;BME280;65220;52.214;0.116;2022-11-25T03:48:35;100457.64;;;15.35;32.84
55474;BME280;65220;52.214;0.116;2022-11-25T03:51:00;100464.38;;;15.63;32.68
55474;BME280;65220;52.214;0.116;2022-11-25T03:53:25;100468.47;;;15.40;32.81
55474;BME280;65220;52.214;0.116;2022-11-25T03:55:50;100471.88;;;15.07;32.84
55474;BME280;65220;52.214;0.116;2022-11-25T03:58:15;100477.02;;;15.37;32.67
55474;BME280;65220;52.214;0.116;2022-11-25T04:00:41;100477.85;;;15.31;32.84
55474;BME280;65220;52.214;0.116;2022-11-25T04:03:06;100478.91;;;15.23;32.82
55474;BME280;65220;52.214;0.116;2022-11-25T04:05:31;100485.98;;;15.42;32.83
55474;BME280;65220;52.214;0.116;2022-11-25T04:07:56;100486.70;;;15.12;32.93
55474;BME280;65220;52.214;0.116;2022-11-25T04:10:21;100492.26;;;15.39;32.70
55474;BME280;65220;52.214;0.116;2022-11-25T04:12:46;100497.06;;;15.14;32.74
55474;BME280;65220;52.214;0.116;2022-11-25T04:15:12;100503.45;;;15.26;32.74
55474;BME280;65220;52.214;0.116;2022-11-25T04:17:37;100501.67;;;15.35;32.72
55474;BME280;65220;52.214;0.116;2022-11-25T04:20:03;100500.76;;;15.52;32.67
55474;BME280;65220;52.214;0.116;2022-11-25T04:22:27;100501.69;;;15.56;32.65
55474;BME280;65220;52.214;0.116;2022-11-25T04:24:52;100507.90;;;15.45;32.88
55474;BME280;65220;52.214;0.116;2022-11-25T04:27:18;100513.48;;;15.48;32.74
55474;BME280;65220;52.214;0.116;2022-11-25T04:29:43;100520.46;;;15.18;32.96
55474;BME280;65220;52.214;0.116;2022-11-25T04:32:08;100521.78;;;15.19;32.94
55474;BME280;65220;52.214;0.116;2022-11-25T04:34:34;100527.65;;;15.48;32.72
55474;BME280;65220;52.214;0.116;2022-11-25T04:36:58;100533.06;;;15.47;32.85
55474;BME280;65220;52.214;0.116;2022-11-25T04:39:23;100535.30;;;14.93;33.20
55474;BME280;65220;52.214;0.116;2022-11-25T04:41:49;100545.09;;;15.02;32.95
55474;BME280;65220;52.214;0.116;2022-11-25T04:44:14;100553.74;;;15.37;32.95
55474;BME280;65220;52.214;0.116;2022-11-25T04:46:40;100561.10;;;15.00;33.04
55474;BME280;65220;52.214;0.116;2022-11-25T04:49:04;100570.84;;;15.03;32.64
55474;BME280;65220;52.214;0.116;2022-11-25T04:51:29;100578.08;;;15.14;32.92
55474;BME280;65220;52.214;0.116;2022-11-25T04:53:55;100582.03;;;15.34;32.74
55474;BME280;65220;52.214;0.116;2022-11-25T04:56:20;100590.42;;;14.75;33.11
55474;BME280;65220;52.214;0.116;2022-11-25T04:58:45;100590.79;;;15.54;32.73
55474;BME280;65220;52.214;0.116;2022-11-25T05:01:10;100597.65;;;14.79;33.10
55474;BME280;65220;52.214;0.116;2022-11-25T05:03:35;100608.41;;;14.95;32.85
55474;BME280;65220;52.214;0.116;2022-11-25T05:06:05;100616.64;;;15.11;32.96
55474;BME280;65220;52.214;0.116;2022-11-25T05:08:26;100620.48;;;15.32;32.75
55474;BME280;65220;52.214;0.116;2022-11-25T05:10:51;100622.93;;;14.99;33.10
55474;BME280;65220;52.214;0.116;2022-11-25T05:13:16;100632.21;;;15.37;32.61
55474;BME280;65220;52.214;0.116;2022-11-25T05:15:41;100638.51;;;16.05;32.28
55474;BME280;65220;52.214;0.116;2022-11-25T05:18:07;100649.08;;;15.58;32.32
55474;BME280;65220;52.214;0.116;2022-11-25T05:20:32;100656.57;;;15.25;32.54
55474;BME280;65220;52.214;0.116;2022-11-25T05:22:57;100664.81;;;16.15;32.08
55474;BME280;65220;52.214;0.116;2022-11-25T05:25:22;100665.19;;;15.77;32.18
55474;BME280;65220;52.214;0.116;2022-11-25T05:27:47;100673.45;;;15.90;32.11
55474;BME280;65220;52.214;0.116;2022-11-25T05:30:13;100682.76;;;15.26;32.43
55474;BME280;65220;52.214;0.116;2022-11-25T05:32:38;100688.34;;;16.41;31.90
55474;BME280;65220;52.214;0.116;2022-11-25T05:35:03;100691.48;;;16.51;31.98
55474;BME280;65220;52.214;0.116;2022-11-25T05:37:28;100698.46;;;16.61;31.65
55474;BME280;65220;52.214;0.116;2022-11-25T05:39:53;100703.18;;;16.59;31.75
55474;BME280;65220;52.214;0.116;2022-11-25T05:42:18;100708.89;;;16.62;31.77
55474;BME280;65220;52.214;0.116;2022-11-25T05:44:43;100706.35;;;17.20;31.42
55474;BME280;65220;52.214;0.116;2022-11-25T05:47:09;100711.29;;;17.31;31.39
55474;BME280;65220;52.214;0.116;2022-11-25T05:49:34;100714.84;;;17.69;31.17
55474;BME280;65220;52.214;0.116;2022-11-25T05:51:59;100718.38;;;17.90;31.02
55474;BME280;65220;52.214;0.116;2022-11-25T05:54:24;100721.48;;;17.70;31.23
55474;BME280;65220;52.214;0.116;2022-11-25T05:56:49;100728.51;;;17.70;31.33
55474;BME280;65220;52.214;0.116;2022-11-25T05:59:14;100734.53;;;17.51;31.28
55474;BME280;65220;52.214;0.116;2022-11-25T06:01:40;100741.66;;;18.03;31.11
55474;BME280;65220;52.214;0.116;2022-11-25T06:04:05;100743.18;;;18.19;30.92
55474;BME280;65220;52.214;0.116;2022-11-25T06:06:30;100746.77;;;17.46;31.13
55474;BME280;65220;52.214;0.116;2022-11-25T06:08:55;100749.69;;;17.62;31.29
55474;BME280;65220;52.214;0.116;2022-11-25T06:11:20;100751.74;;;17.59;31.23
55474;BME280;65220;52.214;0.116;2022-11-25T06:13:45;100755.36;;;17.47;31.31
55474;BME280;65220;52.214;0.116;2022-11-25T06:16:13;100761.62;;;18.06;31.10
55474;BME280;65220;52.214;0.116;2022-11-25T06:18:37;100764.98;;;17.46;31.51
55474;BME280;65220;52.214;0.116;2022-11-25T06:21:02;100771.54;;;17.25;31.78
55474;BME280;65220;52.214;0.116;2022-11-25T06:23:26;100775.70;;;16.91;31.97
55474;BME280;65220;52.214;0.116;2022-11-25T06:25:51;100783.53;;;17.33;31.53
55474;BME280;65220;52.214;0.116;2022-11-25T06:28:17;100787.73;;;16.83;31.87
55474;BME280;65220;52.214;0.116;2022-11-25T06:30:42;100795.56;;;16.95;31.84
55474;BME280;65220;52.214;0.116;2022-11-25T06:33:07;100802.15;;;18.08;31.24
55474;BME280;65220;52.214;0.116;2022-11-25T06:35:32;100801.99;;;17.17;31.62
55474;BME280;65220;52.214;0.116;2022-11-25T06:37:57;100807.31;;;16.96;31.85
55474;BME280;65220;52.214;0.116;2022-11-25T06:40:22;100812.90;;;16.45;32.06
55474;BME280;65220;52.214;0.116;2022-11-25T06:42:52;100813.32;;;16.29;32.38
55474;BME280;65220;52.214;0.116;2022-11-25T06:45:13;100821.84;;;16.86;32.06
55474;BME280;65220;52.214;0.116;2022-11-25T06:47:38;100826.45;;;16.37;32.28
55474;BME280;65220;52.214;0.116;2022-11-25T06:50:04;100828.86;;;16.31;32.34
55474;BME280;65220;52.214;0.116;2022-11-25T06:52:29;100836.16;;;16.79;32.18
55474;BME280;65220;52.214;0.116;2022-11-25T06:54:53;100845.68;;;16.71;32.20
55474;BME280;65220;52.214;0.116;2022-11-25T06:57:19;100856.20;;;16.86;32.20
55474;BME280;65220;52.214;0.116;2022-11-25T06:59:44;100866.37;;;16.57;32.24
55474;BME280;65220;52.214;0.116;2022-11-25T07:02:11;100873.70;;;16.55;32.35
55474;BME280;65220;52.214;0.116;2022-11-25T07:04:34;100880.15;;;16.77;32.10
55474;BME280;65220;52.214;0.116;2022-11-25T07:07:01;100880.45;;;16.52;32.25
55474;BME280;65220;52.214;0.116;2022-11-25T07:09:25;100889.51;;;16.35;32.59
55474;BME280;65220;52.214;0.116;2022-11-25T07:11:50;100901.14;;;16.95;31.95
55474;BME280;65220;52.214;0.116;2022-11-25T07:14:16;100908.45;;;16.91;32.07
55474;BME280;65220;52.214;0.116;2022-11-25T07:16:42;100913.08;;;16.38;32.33
55474;BME280;65220;52.214;0.116;2022-11-25T07:19:06;100913.97;;;17.19;31.88
55474;BME280;65220;52.214;0.116;2022-11-25T07:21:32;100923.09;;;16.24;32.38
55474;BME280;65220;52.214;0.116;2022-11-25T07:23:58;100929.64;;;17.28;31.83
55474;BME280;65220;52.214;0.116;2022-11-25T07:26:23;100937.53;;;16.75;31.97
55474;BME280;65220;52.214;0.116;2022-11-25T07:28:47;100944.60;;;16.65;32.12
55474;BME280;65220;52.214;0.116;2022-11-25T07:31:15;100952.09;;;17.23;31.60
55474;BME280;65220;52.214;0.116;2022-11-25T07:33:37;100957.07;;;17.25;31.67
55474;BME280;65220;52.214;0.116;2022-11-25T07:36:03;100957.42;;;16.87;31.93
55474;BME280;65220;52.214;0.116;2022-11-25T07:38:27;100961.06;;;17.10;31.69
55474;BME280;65220;52.214;0.116;2022-11-25T07:40:52;100963.86;;;17.53;31.56
55474;BME280;65220;52.214;0.116;2022-11-25T07:43:18;100967.78;;;17.40;31.49
55474;BME280;65220;52.214;0.116;2022-11-25T07:45:43;100977.11;;;16.95;31.57
55474;BME280;65220;52.214;0.116;2022-11-25T07:48:08;100979.96;;;17.11;31.57
55474;BME280;65220;52.214;0.116;2022-11-25T07:50:34;100985.24;;;16.83;31.73
55474;BME280;65220;52.214;0.116;2022-11-25T07:52:59;100994.61;;;16.26;32.10
55474;BME280;65220;52.214;0.116;2022-11-25T07:55:24;100997.45;;;16.57;31.88
55474;BME280;65220;52.214;0.116;2022-11-25T07:57:49;101004.37;;;15.82;32.65
55474;BME280;65220;52.214;0.116;2022-11-25T08:00:15;101011.39;;;15.20;33.04
55474;BME280;65220;52.214;0.116;2022-11-25T08:02:40;101019.87;;;16.58;32.25
55474;BME280;65220;52.214;0.116;2022-11-25T08:05:06;101023.80;;;15.67;32.89
55474;BME280;65220;52.214;0.116;2022-11-25T08:07:30;101030.95;;;16.59;32.23
55474;BME280;65220;52.214;0.116;2022-11-25T08:09:55;101039.86;;;16.74;32.07
55474;BME280;65220;52.214;0.116;2022-11-25T08:12:21;101047.95;;;16.55;32.18
55474;BME280;65220;52.214;0.116;2022-11-25T08:14:46;101056.43;;;17.46;31.62
55474;BME280;65220;52.214;0.116;2022-11-25T08:17:11;101057.06;;;16.35;32.20
55474;BME280;65220;52.214;0.116;2022-11-25T08:19:46;101061.12;;;16.91;32.00
55474;BME280;65220;52.214;0.116;2022-11-25T08:22:02;101061.81;;;16.52;32.03
55474;BME280;65220;52.214;0.116;2022-11-25T08:24:27;101069.07;;;16.90;31.87
55474;BME280;65220;52.214;0.116;2022-11-25T08:26:52;101080.30;;;16.52;31.76
55474;BME280;65220;52.214;0.116;2022-11-25T08:29:18;101089.63;;;16.48;31.88
55474;BME280;65220;52.214;0.116;2022-11-25T08:31:42;101095.64;;;17.41;31.41
55474;BME280;65220;52.214;0.116;2022-11-25T08:34:09;101099.40;;;17.00;31.50
55474;BME280;65220;52.214;0.116;2022-11-25T08:36:34;101104.02;;;17.33;31.38
55474;BME280;65220;52.214;0.116;2022-11-25T08:38:59;101111.27;;;15.82;32.19
55474;BME280;65220;52.214;0.116;2022-11-25T08:41:25;101122.73;;;16.66;31.71
55474;BME280;65220;52.214;0.116;2022-11-25T08:43:49;101132.75;;;16.89;31.50
55474;BME280;65220;52.214;0.116;2022-11-25T08:46:16;101138.81;;;17.21;31.51
55474;BME280;65220;52.214;0.116;2022-11-25T08:48:39;101138.28;;;16.48;31.76
55474;BME280;65220;52.214;0.116;2022-11-25T08:51:08;101140.13;;;16.76;31.67
55474;BME280;65220;52.214;0.116;2022-11-25T08:53:29;101142.19;;;15.22;32.73
55474;BME280;65220;52.214;0.116;2022-11-25T08:55:54;101143.61;;;14.92;33.25
55474;BME280;65220;52.214;0.116;2022-11-25T08:58:19;101149.44;;;15.06;33.31
55474;BME280;65220;52.214;0.116;2022-11-25T09:00:44;101156.91;;;15.46;33.14
55474;BME280;65220;52.214;0.116;2022-11-25T09:03:10;101163.73;;;15.08;33.52
55474;BME280;65220;52.214;0.116;2022-11-25T09:05:38;101166.21;;;14.71;33.88
55474;BME280;65220;52.214;0.116;2022-11-25T09:08:01;101170.93;;;14.78;34.05
55474;BME280;65220;52.214;0.116;2022-11-25T09:10:26;101177.27;;;14.75;33.92
55474;BME280;65220;52.214;0.116;2022-11-25T09:12:51;101185.68;;;15.11;33.75
55474;BME280;65220;52.214;0.116;2022-11-25T09:15:16;101197.67;;;14.87;33.93
55474;BME280;65220;52.214;0.116;2022-11-25T09:17:41;101202.44;;;14.49;34.11
55474;BME280;65220;52.214;0.116;2022-11-25T09:20:07;101209.95;;;15.02;33.71
55474;BME280;65220;52.214;0.116;2022-11-25T09:22:31;101217.93;;;15.23;33.57
55474;BME280;65220;52.214;0.116;2022-11-25T09:24:57;101216.26;;;15.62;33.27
55474;BME280;65220;52.214;0.116;2022-11-25T09:27:22;101224.44;;;15.85;33.05
55474;BME280;65220;52.214;0.116;2022-11-25T09:29:48;101232.06;;;15.94;32.90
55474;BME280;65220;52.214;0.116;2022-11-25T09:32:56;101242.92;;;17.75;32.98
55474;BME280;65220;52.214;0.116;2022-11-25T09:36:26;101250.73;;;16.18;33.48
55474;BME280;65220;52.214;0.116;2022-11-25T09:38:52;101251.23;;;15.74;32.66
55474;BME280;65220;52.214;0.116;2022-11-25T09:41:28;101257.38;;;15.69;32.76
55474;BME280;65220;52.214;0.116;2022-11-25T09:43:47;101256.57;;;16.26;32.42
55474;BME280;65220;52.214;0.116;2022-11-25T09:46:14;101261.10;;;15.93;32.87
55474;BME280;65220;52.214;0.116;2022-11-25T09:48:46;101266.02;;;15.47;33.15
55474;BME280;65220;52.214;0.116;2022-11-25T09:51:04;101266.83;;;15.45;33.10
55474;BME280;65220;52.214;0.116;2022-11-25T09:53:32;101269.36;;;14.78;33.51
55474;BME280;65220;52.214;0.116;2022-11-25T09:55:50;101274.92;;;14.78;33.40
55474;BME280;65220;52.214;0.116;2022-11-25T09:58:22;101279.38;;;14.98;33.57
55474;BME280;65220;52.214;0.116;2022-11-25T10:00:40;101283.96;;;15.53;33.13
55474;BME280;65220;52.214;0.116;2022-11-25T10:03:08;101285.25;;;14.95;33.37
55474;BME280;65220;52.214;0.116;2022-11-25T10:05:33;101295.02;;;14.40;33.88
55474;BME280;65220;52.214;0.116;2022-11-25T10:07:56;101296.90;;;14.87;33.59
55474;BME280;65220;52.214;0.116;2022-11-25T10:10:24;101300.37;;;15.13;33.40
55474;BME280;65220;52.214;0.116;2022-11-25T10:12:46;101308.72;;;14.96;33.46
55474;BME280;65220;52.214;0.116;2022-11-25T10:15:17;101311.85;;;14.95;33.31
55474;BME280;65220;52.214;0.116;2022-11-25T10:17:39;101317.57;;;14.64;33.65
55474;BME280;65220;52.214;0.116;2022-11-25T10:20:02;101328.03;;;13.97;33.97
55474;BME280;65220;52.214;0.116;2022-11-25T10:22:26;101333.18;;;14.90;33.38
55474;BME280;65220;52.214;0.116;2022-11-25T10:24:52;101342.61;;;15.34;33.29
55474;BME280;65220;52.214;0.116;2022-11-25T10:27:20;101336.87;;;15.00;33.60
55474;BME280;65220;52.214;0.116;2022-11-25T10:29:41;101337.02;;;14.71;33.68
55474;BME280;65220;52.214;0.116;2022-11-25T10:32:18;101344.60;;;15.47;33.14
55474;BME280;65220;52.214;0.116;2022-11-25T10:34:35;101350.77;;;15.43;33.00
55474;BME280;65220;52.214;0.116;2022-11-25T10:36:58;101356.94;;;15.10;33.21
55474;BME280;65220;52.214;0.116;2022-11-25T10:39:23;101359.03;;;14.93;33.33
55474;BME280;65220;52.214;0.116;2022-11-25T10:41:51;101361.24;;;14.95;33.35
55474;BME280;65220;52.214;0.116;2022-11-25T10:44:21;101364.80;;;15.33;32.92
55474;BME280;65220;52.214;0.116;2022-11-25T10:46:39;101365.10;;;15.55;33.10
55474;BME280;65220;52.214;0.116;2022-11-25T10:49:10;101369.99;;;15.57;32.92
55474;BME280;65220;52.214;0.116;2022-11-25T10:51:35;101372.11;;;15.68;32.84
55474;BME280;65220;52.214;0.116;2022-11-25T10:54:12;101371.35;;;15.27;32.98
55474;BME280;65220;52.214;0.116;2022-11-25T10:56:18;101375.89;;;16.19;32.16
55474;BME280;65220;52.214;0.116;2022-11-25T10:58:43;101370.75;;;15.12;32.90
55474;BME280;65220;52.214;0.116;2022-11-25T11:01:14;101372.21;;;15.21;33.06
55474;BME280;65220;52.214;0.116;2022-11-25T11:03:34;101374.31;;;15.12;32.99
55474;BME280;65220;52.214;0.116;2022-11-25T11:05:59;101379.60;;;14.50;33.02
55474;BME280;65220;52.214;0.116;2022-11-25T11:08:26;101385.13;;;14.99;32.84
55474;BME280;65220;52.214;0.116;2022-11-25T11:11:13;101383.10;;;15.44;32.74
55474;BME280;65220;52.214;0.116;2022-11-25T11:13:22;101387.28;;;15.32;32.94
55474;BME280;65220;52.214;0.116;2022-11-25T11:15:45;101387.53;;;14.63;32.95
55474;BME280;65220;52.214;0.116;2022-11-25T11:18:22;101390.46;;;15.31;32.84
55474;BME280;65220;52.214;0.116;2022-11-25T11:20:31;101389.36;;;15.01;33.09
55474;BME280;65220;52.214;0.116;2022-11-25T11:22:57;101400.37;;;15.92;32.58
55474;BME280;65220;52.214;0.116;2022-11-25T11:25:25;101406.57;;;15.89;32.62
55474;BME280;65220;52.214;0.116;2022-11-25T11:27:46;101404.14;;;15.71;32.57
55474;BME280;65220;52.214;0.116;2022-11-25T11:30:16;101407.62;;;16.05;32.45
55474;BME280;65220;52.214;0.116;2022-11-25T11:32:38;101409.14;;;15.93;32.87
55474;BME280;65220;52.214;0.116;2022-11-25T11:35:05;101413.97;;;16.43;32.64
55474;BME280;65220;52.214;0.116;2022-11-25T11:37:38;101416.33;;;16.47;32.50
55474;BME280;65220;52.214;0.116;2022-11-25T11:40:04;101414.01;;;16.06;32.66
55474;BME280;65220;52.214;0.116;2022-11-25T11:42:23;101418.20;;;16.36;32.62
55474;BME280;65220;52.214;0.116;2022-11-25T11:44:53;101422.12;;;16.19;32.48
55474;BME280;65220;52.214;0.116;2022-11-25T11:47:14;101419.12;;;15.73;33.16
55474;BME280;65220;52.214;0.116;2022-11-25T11:49:50;101425.95;;;16.04;32.81
55474;BME280;65220;52.214;0.116;2022-11-25T11:52:04;101426.15;;;16.43;32.21
55474;BME280;65220;52.214;0.116;2022-11-25T11:54:28;101428.75;;;16.14;31.79
55474;BME280;65220;52.214;0.116;2022-11-25T11:56:51;101428.86;;;15.34;32.79
55474;BME280;65220;52.214;0.116;2022-11-25T11:59:28;101433.03;;;15.23;32.87
55474;BME280;65220;52.214;0.116;2022-11-25T12:01:47;101435.37;;;15.59;32.83
55474;BME280;65220;52.214;0.116;2022-11-25T12:04:12;101440.25;;;15.69;32.70
55474;BME280;65220;52.214;0.116;2022-11-25T12:06:31;101444.99;;;15.72;32.63
55474;BME280;65220;52.214;0.116;2022-11-25T12:08:57;101456.28;;;15.55;32.93
55474;BME280;65220;52.214;0.116;2022-11-25T12:11:21;101464.24;;;15.23;33.05
55474;BME280;65220;52.214;0.116;2022-11-25T12:13:47;101460.46;;;15.44;32.86
55474;BME280;65220;52.214;0.116;2022-11-25T12:16:12;101470.06;;;15.88;32.61
55474;BME280;65220;52.214;0.116;2022-11-25T12:18:46;101478.31;;;16.06;32.39
55474;BME280;65220;52.214;0.116;2022-11-25T12:21:02;101474.90;;;16.19;32.45
55474;BME280;65220;52.214;0.116;2022-11-25T12:23:31;101476.44;;;16.54;32.26
55474;BME280;65220;52.214;0.116;2022-11-25T12:25:55;101477.46;;;16.20;32.38
55474;BME280;65220;52.214;0.116;2022-11-25T12:28:19;101478.08;;;16.37;32.13
55474;BME280;65220;52.214;0.116;2022-11-25T12:30:45;101483.45;;;16.03;32.33
55474;BME280;65220;52.214;0.116;2022-11-25T12:33:10;101491.42;;;15.90;32.68
55474;BME280;65220;52.214;0.116;2022-11-25T12:35:42;101498.16;;;16.39;32.27
55474;BME280;65220;52.214;0.116;2022-11-25T12:38:03;101488.35;;;16.26;32.48
55474;BME280;65220;52.214;0.116;2022-11-25T12:40:27;101491.70;;;16.27;32.45